sensor_id;sensor_type;location;lat;lon;timestamp;temperature;humidity
76787;DHT22;65739;51.482;5.702;2023-04-03T00:00:31;0.70;99.90
76787;DHT22;65739;51.482;5.702;2023-04-03T00:02:57;0.60;99.90
76787;DHT22;65739;51.482;5.702;2023-04-03T00:05:22;0.60;99.90
76787;DHT22;65739;51.482;5.702;2023-04-03T00:07:48;0.60;99.90
76787;DHT22;65739;51.482;5.702;2023-04-03T00:10:15;0.50;99.90
76787;DHT22;65739;51.482;5.702;2023-04-03T00:12:40;0.60;99.90
76787;DHT22;65739;51.482;5.702;2023-04-03T00:15:06;0.50;99.90
76787;DHT22;65739;51.482;5.702;2023-04-03T00:17:32;0.50;99.90
76787;DHT22;65739;51.482;5.702;2023-04-03T00:19:57;0.50;99.90
76787;DHT22;65739;51.482;5.702;2023-04-03T00:22:23;0.50;99.90
76787;DHT22;65739;51.482;5.702;2023-04-03T00:24:48;0.40;99.90
76787;DHT22;65739;51.482;5.702;2023-04-03T00:27:14;0.40;99.90
76787;DHT22;65739;51.482;5.702;2023-04-03T00:29:40;0.40;99.90
76787;DHT22;65739;51.482;5.702;2023-04-03T00:32:06;0.40;99.90
76787;DHT22;65739;51.482;5.702;2023-04-03T00:34:31;0.30;99.90
76787;DHT22;65739;51.482;5.702;2023-04-03T00:36:57;0.40;99.90
76787;DHT22;65739;51.482;5.702;2023-04-03T00:39:22;0.40;99.90
76787;DHT22;65739;51.482;5.702;2023-04-03T00:41:48;0.50;99.90
76787;DHT22;65739;51.482;5.702;2023-04-03T00:44:18;0.50;99.90
76787;DHT22;65739;51.482;5.702;2023-04-03T00:46:44;0.50;99.90
76787;DHT22;65739;51.482;5.702;2023-04-03T00:49:09;0.40;99.90
76787;DHT22;65739;51.482;5.702;2023-04-03T00:51:35;0.40;99.90
76787;DHT22;65739;51.482;5.702;2023-04-03T00:54:01;0.40;99.90
76787;DHT22;65739;51.482;5.702;2023-04-03T00:56:27;0.50;99.90
76787;DHT22;65739;51.482;5.702;2023-04-03T00:58:56;0.40;99.90
76787;DHT22;65739;51.482;5.702;2023-04-03T01:01:25;0.40;99.90
76787;DHT22;65739;51.482;5.702;2023-04-03T01:03:51;0.40;99.90
76787;DHT22;65739;51.482;5.702;2023-04-03T01:06:17;0.40;99.90
76787;DHT22;65739;51.482;5.702;2023-04-03T01:08:45;0.40;99.90
76787;DHT22;65739;51.482;5.702;2023-04-03T01:11:13;0.40;99.90
76787;DHT22;65739;51.482;5.702;2023-04-03T01:13:39;0.40;99.90
76787;DHT22;65739;51.482;5.702;2023-04-03T01:16:05;0.40;99.90
76787;DHT22;65739;51.482;5.702;2023-04-03T01:18:31;0.40;99.90
76787;DHT22;65739;51.482;5.702;2023-04-03T01:23:44;0.30;99.90
76787;DHT22;65739;51.482;5.702;2023-04-03T01:26:12;0.30;99.90
76787;DHT22;65739;51.482;5.702;2023-04-03T01:28:38;0.30;99.90
76787;DHT22;65739;51.482;5.702;2023-04-03T01:33:38;0.30;99.90
76787;DHT22;65739;51.482;5.702;2023-04-03T01:36:04;0.40;99.90
76787;DHT22;65739;51.482;5.702;2023-04-03T01:38:30;0.50;99.90
76787;DHT22;65739;51.482;5.702;2023-04-03T01:40:55;0.50;99.90
76787;DHT22;65739;51.482;5.702;2023-04-03T01:43:21;0.50;99.90
76787;DHT22;65739;51.482;5.702;2023-04-03T01:45:46;0.60;99.90
76787;DHT22;65739;51.482;5.702;2023-04-03T01:48:14;0.60;99.90
76787;DHT22;65739;51.482;5.702;2023-04-03T01:50:40;0.60;99.90
76787;DHT22;65739;51.482;5.702;2023-04-03T01:53:06;0.60;99.90
76787;DHT22;65739;51.482;5.702;2023-04-03T01:55:32;0.60;99.90
76787;DHT22;65739;51.482;5.702;2023-04-03T01:57:57;0.60;99.90
76787;DHT22;65739;51.482;5.702;2023-04-03T02:00:23;0.60;99.90
76787;DHT22;65739;51.482;5.702;2023-04-03T02:02:48;0.50;99.90
76787;DHT22;65739;51.482;5.702;2023-04-03T02:05:13;0.50;99.90
76787;DHT22;65739;51.482;5.702;2023-04-03T02:07:39;0.40;99.90
76787;DHT22;65739;51.482;5.702;2023-04-03T02:10:05;0.40;99.90
76787;DHT22;65739;51.482;5.702;2023-04-03T02:12:30;0.40;99.90
76787;DHT22;65739;51.482;5.702;2023-04-03T02:14:56;0.30;99.90
76787;DHT22;65739;51.482;5.702;2023-04-03T02:17:21;0.20;99.90
76787;DHT22;65739;51.482;5.702;2023-04-03T02:19:47;0.30;99.90
76787;DHT22;65739;51.482;5.702;2023-04-03T02:22:13;0.20;99.90
76787;DHT22;65739;51.482;5.702;2023-04-03T02:24:38;0.20;99.90
76787;DHT22;65739;51.482;5.702;2023-04-03T02:27:05;0.10;99.90
76787;DHT22;65739;51.482;5.702;2023-04-03T02:29:31;0.10;99.90
76787;DHT22;65739;51.482;5.702;2023-04-03T02:31:56;0.10;99.90
76787;DHT22;65739;51.482;5.702;2023-04-03T02:34:22;0.10;99.90
76787;DHT22;65739;51.482;5.702;2023-04-03T02:36:47;0.10;99.90
76787;DHT22;65739;51.482;5.702;2023-04-03T02:39:12;0.10;99.90
76787;DHT22;65739;51.482;5.702;2023-04-03T02:41:38;0.10;99.90
76787;DHT22;65739;51.482;5.702;2023-04-03T02:44:04;0.10;99.90
76787;DHT22;65739;51.482;5.702;2023-04-03T02:46:30;0.10;99.90
76787;DHT22;65739;51.482;5.702;2023-04-03T02:48:56;0.20;99.90
76787;DHT22;65739;51.482;5.702;2023-04-03T02:51:21;0.20;99.90
76787;DHT22;65739;51.482;5.702;2023-04-03T02:53:48;0.10;99.90
76787;DHT22;65739;51.482;5.702;2023-04-03T02:56:13;0.10;99.90
76787;DHT22;65739;51.482;5.702;2023-04-03T02:58:39;0.20;99.90
76787;DHT22;65739;51.482;5.702;2023-04-03T03:01:05;0.20;99.90
76787;DHT22;65739;51.482;5.702;2023-04-03T03:03:30;0.20;99.90
76787;DHT22;65739;51.482;5.702;2023-04-03T03:06:03;0.20;99.90
76787;DHT22;65739;51.482;5.702;2023-04-03T03:08:28;0.20;99.90
76787;DHT22;65739;51.482;5.702;2023-04-03T03:10:54;0.20;99.90
76787;DHT22;65739;51.482;5.702;2023-04-03T03:13:19;0.20;99.90
76787;DHT22;65739;51.482;5.702;2023-04-03T03:15:45;0.20;99.90
76787;DHT22;65739;51.482;5.702;2023-04-03T03:18:10;0.20;99.90
76787;DHT22;65739;51.482;5.702;2023-04-03T03:20:36;0.20;99.90
76787;DHT22;65739;51.482;5.702;2023-04-03T03:23:01;0.20;99.90
76787;DHT22;65739;51.482;5.702;2023-04-03T03:25:27;0.20;99.90
76787;DHT22;65739;51.482;5.702;2023-04-03T03:27:52;0.20;99.90
76787;DHT22;65739;51.482;5.702;2023-04-03T03:30:17;0.20;99.90
76787;DHT22;65739;51.482;5.702;2023-04-03T03:32:43;0.20;99.90
76787;DHT22;65739;51.482;5.702;2023-04-03T03:35:08;0.20;99.90
76787;DHT22;65739;51.482;5.702;2023-04-03T03:37:34;0.20;99.90
76787;DHT22;65739;51.482;5.702;2023-04-03T03:40:00;0.10;99.90
76787;DHT22;65739;51.482;5.702;2023-04-03T03:42:25;0.10;99.90
76787;DHT22;65739;51.482;5.702;2023-04-03T03:44:50;0.00;99.90
76787;DHT22;65739;51.482;5.702;2023-04-03T03:47:17;0.10;99.90
76787;DHT22;65739;51.482;5.702;2023-04-03T03:49:42;0.00;99.90
76787;DHT22;65739;51.482;5.702;2023-04-03T03:52:07;0.00;99.90
76787;DHT22;65739;51.482;5.702;2023-04-03T03:54:36;0.00;99.90
76787;DHT22;65739;51.482;5.702;2023-04-03T03:57:01;-0.10;99.90
76787;DHT22;65739;51.482;5.702;2023-04-03T03:59:27;-0.10;99.90
76787;DHT22;65739;51.482;5.702;2023-04-03T04:01:52;-0.10;99.90
76787;DHT22;65739;51.482;5.702;2023-04-03T04:04:17;-0.10;99.90
76787;DHT22;65739;51.482;5.702;2023-04-03T04:06:43;-0.10;99.90
76787;DHT22;65739;51.482;5.702;2023-04-03T04:09:09;-0.10;99.90
76787;DHT22;65739;51.482;5.702;2023-04-03T04:11:34;-0.10;99.90
76787;DHT22;65739;51.482;5.702;2023-04-03T04:14:00;-0.10;99.90
76787;DHT22;65739;51.482;5.702;2023-04-03T04:16:25;-0.20;99.90
76787;DHT22;65739;51.482;5.702;2023-04-03T04:18:51;-0.20;99.90
76787;DHT22;65739;51.482;5.702;2023-04-03T04:21:16;-0.30;99.90
76787;DHT22;65739;51.482;5.702;2023-04-03T04:23:42;-0.20;99.90
76787;DHT22;65739;51.482;5.702;2023-04-03T04:26:07;-0.30;99.90
76787;DHT22;65739;51.482;5.702;2023-04-03T04:28:32;-0.40;99.90
76787;DHT22;65739;51.482;5.702;2023-04-03T04:30:58;-0.40;99.90
76787;DHT22;65739;51.482;5.702;2023-04-03T04:33:23;-0.40;99.90
76787;DHT22;65739;51.482;5.702;2023-04-03T04:35:49;-0.50;99.90
76787;DHT22;65739;51.482;5.702;2023-04-03T04:38:15;-0.50;99.90
76787;DHT22;65739;51.482;5.702;2023-04-03T04:40:40;-0.50;99.90
76787;DHT22;65739;51.482;5.702;2023-04-03T04:43:06;-0.50;99.90
76787;DHT22;65739;51.482;5.702;2023-04-03T04:45:32;-0.40;99.90
76787;DHT22;65739;51.482;5.702;2023-04-03T04:47:57;-0.50;99.90
76787;DHT22;65739;51.482;5.702;2023-04-03T04:50:23;-0.40;99.90
76787;DHT22;65739;51.482;5.702;2023-04-03T04:52:48;-0.40;99.90
76787;DHT22;65739;51.482;5.702;2023-04-03T04:55:14;-0.40;99.90
76787;DHT22;65739;51.482;5.702;2023-04-03T04:57:39;-0.30;99.90
76787;DHT22;65739;51.482;5.702;2023-04-03T05:00:05;-0.20;99.90
76787;DHT22;65739;51.482;5.702;2023-04-03T05:02:31;-0.10;99.90
76787;DHT22;65739;51.482;5.702;2023-04-03T05:04:56;-0.10;99.90
76787;DHT22;65739;51.482;5.702;2023-04-03T05:07:22;-0.10;99.90
76787;DHT22;65739;51.482;5.702;2023-04-03T05:09:47;-0.10;99.90
76787;DHT22;65739;51.482;5.702;2023-04-03T05:12:13;0.10;99.90
76787;DHT22;65739;51.482;5.702;2023-04-03T05:14:38;0.10;99.90
76787;DHT22;65739;51.482;5.702;2023-04-03T05:17:04;0.10;99.90
76787;DHT22;65739;51.482;5.702;2023-04-03T05:19:29;0.20;99.90
76787;DHT22;65739;51.482;5.702;2023-04-03T05:21:55;0.20;99.90
76787;DHT22;65739;51.482;5.702;2023-04-03T05:24:20;0.20;99.90
76787;DHT22;65739;51.482;5.702;2023-04-03T05:26:46;0.30;99.90
76787;DHT22;65739;51.482;5.702;2023-04-03T05:29:11;0.30;99.90
76787;DHT22;65739;51.482;5.702;2023-04-03T05:31:37;0.40;99.90
76787;DHT22;65739;51.482;5.702;2023-04-03T05:34:02;0.50;99.90
76787;DHT22;65739;51.482;5.702;2023-04-03T05:36:28;0.60;99.90
76787;DHT22;65739;51.482;5.702;2023-04-03T05:38:53;0.60;99.90
76787;DHT22;65739;51.482;5.702;2023-04-03T05:41:21;0.70;99.90
76787;DHT22;65739;51.482;5.702;2023-04-03T05:43:47;0.80;99.90
76787;DHT22;65739;51.482;5.702;2023-04-03T05:46:13;0.80;99.90
76787;DHT22;65739;51.482;5.702;2023-04-03T05:48:38;0.90;99.90
76787;DHT22;65739;51.482;5.702;2023-04-03T05:51:04;1.00;99.90
76787;DHT22;65739;51.482;5.702;2023-04-03T05:53:31;1.10;99.90
76787;DHT22;65739;51.482;5.702;2023-04-03T05:55:57;1.10;99.90
76787;DHT22;65739;51.482;5.702;2023-04-03T05:58:23;1.20;99.90
76787;DHT22;65739;51.482;5.702;2023-04-03T06:00:48;1.30;99.90
76787;DHT22;65739;51.482;5.702;2023-04-03T06:03:13;1.40;99.90
76787;DHT22;65739;51.482;5.702;2023-04-03T06:05:39;1.50;99.90
76787;DHT22;65739;51.482;5.702;2023-04-03T06:08:04;1.50;99.90
76787;DHT22;65739;51.482;5.702;2023-04-03T06:10:30;1.60;99.90
76787;DHT22;65739;51.482;5.702;2023-04-03T06:12:56;1.70;99.90
76787;DHT22;65739;51.482;5.702;2023-04-03T06:15:21;1.70;99.90
76787;DHT22;65739;51.482;5.702;2023-04-03T06:17:47;1.80;99.90
76787;DHT22;65739;51.482;5.702;2023-04-03T06:20:12;1.90;99.90
76787;DHT22;65739;51.482;5.702;2023-04-03T06:22:38;1.90;99.90
76787;DHT22;65739;51.482;5.702;2023-04-03T06:25:04;2.00;99.90
76787;DHT22;65739;51.482;5.702;2023-04-03T06:27:30;2.10;99.90
76787;DHT22;65739;51.482;5.702;2023-04-03T06:29:55;2.10;99.90
76787;DHT22;65739;51.482;5.702;2023-04-03T06:32:21;2.30;99.90
76787;DHT22;65739;51.482;5.702;2023-04-03T06:34:46;2.30;99.90
76787;DHT22;65739;51.482;5.702;2023-04-03T06:37:16;2.40;99.90
76787;DHT22;65739;51.482;5.702;2023-04-03T06:39:42;2.50;99.90
76787;DHT22;65739;51.482;5.702;2023-04-03T06:42:08;2.60;99.90
76787;DHT22;65739;51.482;5.702;2023-04-03T06:44:33;2.70;99.90
76787;DHT22;65739;51.482;5.702;2023-04-03T06:46:59;2.80;99.90
76787;DHT22;65739;51.482;5.702;2023-04-03T06:49:25;2.80;99.90
76787;DHT22;65739;51.482;5.702;2023-04-03T06:51:51;3.00;99.90
76787;DHT22;65739;51.482;5.702;2023-04-03T06:54:17;3.10;99.90
76787;DHT22;65739;51.482;5.702;2023-04-03T06:56:46;3.20;99.90
76787;DHT22;65739;51.482;5.702;2023-04-03T06:59:11;3.20;99.90
76787;DHT22;65739;51.482;5.702;2023-04-03T07:01:38;3.30;99.90
76787;DHT22;65739;51.482;5.702;2023-04-03T07:04:04;3.40;99.90
76787;DHT22;65739;51.482;5.702;2023-04-03T07:06:31;3.40;99.90
76787;DHT22;65739;51.482;5.702;2023-04-03T07:08:57;3.60;99.90
76787;DHT22;65739;51.482;5.702;2023-04-03T07:11:23;3.60;99.90
76787;DHT22;65739;51.482;5.702;2023-04-03T07:13:49;3.70;99.90
76787;DHT22;65739;51.482;5.702;2023-04-03T07:16:14;3.80;99.90
76787;DHT22;65739;51.482;5.702;2023-04-03T07:18:40;3.90;99.90
76787;DHT22;65739;51.482;5.702;2023-04-03T07:21:06;4.00;99.90
76787;DHT22;65739;51.482;5.702;2023-04-03T07:23:32;4.00;99.90
76787;DHT22;65739;51.482;5.702;2023-04-03T07:25:57;4.10;99.90
76787;DHT22;65739;51.482;5.702;2023-04-03T07:28:23;4.20;99.90
76787;DHT22;65739;51.482;5.702;2023-04-03T07:30:50;4.30;99.90
76787;DHT22;65739;51.482;5.702;2023-04-03T07:33:16;4.40;99.90
76787;DHT22;65739;51.482;5.702;2023-04-03T07:35:42;4.40;99.90
76787;DHT22;65739;51.482;5.702;2023-04-03T07:38:08;4.50;99.90
76787;DHT22;65739;51.482;5.702;2023-04-03T07:40:34;4.60;99.90
76787;DHT22;65739;51.482;5.702;2023-04-03T07:43:00;4.70;99.90
76787;DHT22;65739;51.482;5.702;2023-04-03T07:45:25;4.80;99.90
76787;DHT22;65739;51.482;5.702;2023-04-03T07:47:51;4.80;99.90
76787;DHT22;65739;51.482;5.702;2023-04-03T07:50:17;4.90;99.90
76787;DHT22;65739;51.482;5.702;2023-04-03T07:52:43;5.10;99.90
76787;DHT22;65739;51.482;5.702;2023-04-03T07:55:08;5.00;99.90
76787;DHT22;65739;51.482;5.702;2023-04-03T07:57:34;5.10;99.90
76787;DHT22;65739;51.482;5.702;2023-04-03T08:00:00;5.30;99.90
76787;DHT22;65739;51.482;5.702;2023-04-03T08:02:26;5.30;99.90
76787;DHT22;65739;51.482;5.702;2023-04-03T08:04:52;5.40;99.90
76787;DHT22;65739;51.482;5.702;2023-04-03T08:07:17;5.50;99.90
76787;DHT22;65739;51.482;5.702;2023-04-03T08:09:43;5.70;99.90
76787;DHT22;65739;51.482;5.702;2023-04-03T08:12:10;5.80;99.90
76787;DHT22;65739;51.482;5.702;2023-04-03T08:14:36;6.00;99.90
76787;DHT22;65739;51.482;5.702;2023-04-03T08:17:02;6.10;99.90
76787;DHT22;65739;51.482;5.702;2023-04-03T08:19:30;6.20;99.90
76787;DHT22;65739;51.482;5.702;2023-04-03T08:21:56;6.20;99.90
76787;DHT22;65739;51.482;5.702;2023-04-03T08:24:24;6.40;99.90
76787;DHT22;65739;51.482;5.702;2023-04-03T08:26:49;6.50;99.90
76787;DHT22;65739;51.482;5.702;2023-04-03T08:29:15;6.60;99.90
76787;DHT22;65739;51.482;5.702;2023-04-03T08:31:40;6.80;99.90
76787;DHT22;65739;51.482;5.702;2023-04-03T08:34:06;7.10;99.90
76787;DHT22;65739;51.482;5.702;2023-04-03T08:36:31;7.30;99.90
76787;DHT22;65739;51.482;5.702;2023-04-03T08:38:57;7.40;99.90
76787;DHT22;65739;51.482;5.702;2023-04-03T08:41:44;7.40;99.90
76787;DHT22;65739;51.482;5.702;2023-04-03T08:44:25;7.60;99.90
76787;DHT22;65739;51.482;5.702;2023-04-03T08:49:30;7.40;99.90
76787;DHT22;65739;51.482;5.702;2023-04-03T08:51:56;7.40;99.90
76787;DHT22;65739;51.482;5.702;2023-04-03T08:54:30;7.50;99.90
76787;DHT22;65739;51.482;5.702;2023-04-03T08:56:57;7.50;99.90
76787;DHT22;65739;51.482;5.702;2023-04-03T08:59:26;7.50;99.90
76787;DHT22;65739;51.482;5.702;2023-04-03T09:01:52;7.60;99.90
76787;DHT22;65739;51.482;5.702;2023-04-03T09:04:18;7.80;99.90
76787;DHT22;65739;51.482;5.702;2023-04-03T09:06:45;7.80;99.90
76787;DHT22;65739;51.482;5.702;2023-04-03T09:09:31;7.90;99.90
76787;DHT22;65739;51.482;5.702;2023-04-03T09:14:26;8.00;99.90
76787;DHT22;65739;51.482;5.702;2023-04-03T09:16:57;8.00;99.90
76787;DHT22;65739;51.482;5.702;2023-04-03T09:21:59;8.00;99.90
76787;DHT22;65739;51.482;5.702;2023-04-03T09:24:25;7.90;99.90
76787;DHT22;65739;51.482;5.702;2023-04-03T09:26:53;7.90;99.90
76787;DHT22;65739;51.482;5.702;2023-04-03T09:29:23;8.10;99.90
76787;DHT22;65739;51.482;5.702;2023-04-03T09:31:50;8.40;99.90
76787;DHT22;65739;51.482;5.702;2023-04-03T09:34:25;8.30;99.90
76787;DHT22;65739;51.482;5.702;2023-04-03T09:36:53;8.20;99.90
76787;DHT22;65739;51.482;5.702;2023-04-03T09:39:20;8.30;99.90
76787;DHT22;65739;51.482;5.702;2023-04-03T09:44:31;8.50;99.90
76787;DHT22;65739;51.482;5.702;2023-04-03T09:46:57;8.50;99.90
76787;DHT22;65739;51.482;5.702;2023-04-03T09:49:22;8.50;99.90
76787;DHT22;65739;51.482;5.702;2023-04-03T09:51:48;8.60;99.90
76787;DHT22;65739;51.482;5.702;2023-04-03T09:56:55;8.80;99.90
76787;DHT22;65739;51.482;5.702;2023-04-03T09:59:21;8.90;99.90
76787;DHT22;65739;51.482;5.702;2023-04-03T10:01:57;8.80;99.90
76787;DHT22;65739;51.482;5.702;2023-04-03T10:04:23;8.80;99.90
76787;DHT22;65739;51.482;5.702;2023-04-03T10:06:54;8.90;99.90
76787;DHT22;65739;51.482;5.702;2023-04-03T10:12:08;9.10;99.90
76787;DHT22;65739;51.482;5.702;2023-04-03T10:14:39;9.40;99.90
76787;DHT22;65739;51.482;5.702;2023-04-03T10:19:51;9.70;99.90
76787;DHT22;65739;51.482;5.702;2023-04-03T10:22:20;9.80;99.90
76787;DHT22;65739;51.482;5.702;2023-04-03T10:24:52;9.80;99.90
76787;DHT22;65739;51.482;5.702;2023-04-03T10:27:22;10.00;99.90
76787;DHT22;65739;51.482;5.702;2023-04-03T10:29:57;9.80;98.90
76787;DHT22;65739;51.482;5.702;2023-04-03T10:32:44;9.80;98.90
76787;DHT22;65739;51.482;5.702;2023-04-03T10:35:15;10.20;99.90
76787;DHT22;65739;51.482;5.702;2023-04-03T10:42:43;9.80;98.90
76787;DHT22;65739;51.482;5.702;2023-04-03T10:48:32;9.80;98.60
76787;DHT22;65739;51.482;5.702;2023-04-03T10:51:09;9.80;98.10
76787;DHT22;65739;51.482;5.702;2023-04-03T10:53:44;9.90;98.00
76787;DHT22;65739;51.482;5.702;2023-04-03T10:56:18;10.00;97.90
76787;DHT22;65739;51.482;5.702;2023-04-03T10:58:48;10.10;99.00
76787;DHT22;65739;51.482;5.702;2023-04-03T11:01:16;10.10;97.80
76787;DHT22;65739;51.482;5.702;2023-04-03T11:03:48;10.20;97.50
76787;DHT22;65739;51.482;5.702;2023-04-03T11:06:15;10.30;97.10
76787;DHT22;65739;51.482;5.702;2023-04-03T11:08:45;10.50;98.30
76787;DHT22;65739;51.482;5.702;2023-04-03T11:11:16;10.70;97.80
76787;DHT22;65739;51.482;5.702;2023-04-03T11:13:47;10.60;97.50
76787;DHT22;65739;51.482;5.702;2023-04-03T11:16:16;10.70;96.40
76787;DHT22;65739;51.482;5.702;2023-04-03T11:18:45;10.90;97.90
76787;DHT22;65739;51.482;5.702;2023-04-03T11:21:16;10.90;97.50
76787;DHT22;65739;51.482;5.702;2023-04-03T11:23:42;11.20;97.20
76787;DHT22;65739;51.482;5.702;2023-04-03T11:26:11;11.50;96.70
76787;DHT22;65739;51.482;5.702;2023-04-03T11:28:37;11.40;96.50
76787;DHT22;65739;51.482;5.702;2023-04-03T11:31:09;11.40;96.80
76787;DHT22;65739;51.482;5.702;2023-04-03T11:36:24;11.40;99.30
76787;DHT22;65739;51.482;5.702;2023-04-03T11:38:51;11.80;98.00
76787;DHT22;65739;51.482;5.702;2023-04-03T11:41:18;11.80;96.20
76787;DHT22;65739;51.482;5.702;2023-04-03T11:44:03;11.70;95.40
76787;DHT22;65739;51.482;5.702;2023-04-03T11:51:57;11.50;95.50
76787;DHT22;65739;51.482;5.702;2023-04-03T11:57:41;11.50;95.40
76787;DHT22;65739;51.482;5.702;2023-04-03T12:02:52;11.70;97.30
76787;DHT22;65739;51.482;5.702;2023-04-03T12:05:25;11.80;95.30
76787;DHT22;65739;51.482;5.702;2023-04-03T12:10:35;11.30;95.70
76787;DHT22;65739;51.482;5.702;2023-04-03T12:13:11;11.60;97.20
76787;DHT22;65739;51.482;5.702;2023-04-03T12:15:44;12.40;97.30
76787;DHT22;65739;51.482;5.702;2023-04-03T12:21:17;12.30;95.50
76787;DHT22;65739;51.482;5.702;2023-04-03T12:26:40;12.40;96.80
76787;DHT22;65739;51.482;5.702;2023-04-03T12:29:15;12.50;96.50
76787;DHT22;65739;51.482;5.702;2023-04-03T12:31:46;12.20;94.70
76787;DHT22;65739;51.482;5.702;2023-04-03T12:34:36;12.20;95.20
76787;DHT22;65739;51.482;5.702;2023-04-03T12:39:52;12.40;97.40
76787;DHT22;65739;51.482;5.702;2023-04-03T12:47:34;11.90;95.60
76787;DHT22;65739;51.482;5.702;2023-04-03T12:50:02;11.80;96.80
76787;DHT22;65739;51.482;5.702;2023-04-03T12:52:31;12.10;95.90
76787;DHT22;65739;51.482;5.702;2023-04-03T12:54:57;12.20;96.90
76787;DHT22;65739;51.482;5.702;2023-04-03T12:57:24;12.70;96.40
76787;DHT22;65739;51.482;5.702;2023-04-03T12:59:51;12.50;96.40
76787;DHT22;65739;51.482;5.702;2023-04-03T13:02:50;12.20;96.90
76787;DHT22;65739;51.482;5.702;2023-04-03T13:05:09;11.80;96.60
76787;DHT22;65739;51.482;5.702;2023-04-03T13:07:38;12.20;98.20
76787;DHT22;65739;51.482;5.702;2023-04-03T13:12:32;12.20;97.00
76787;DHT22;65739;51.482;5.702;2023-04-03T13:14:59;12.30;97.10
76787;DHT22;65739;51.482;5.702;2023-04-03T13:17:25;12.10;95.40
76787;DHT22;65739;51.482;5.702;2023-04-03T13:19:51;12.20;96.60
76787;DHT22;65739;51.482;5.702;2023-04-03T13:25:21;12.10;96.80
76787;DHT22;65739;51.482;5.702;2023-04-03T13:27:48;12.30;97.20
76787;DHT22;65739;51.482;5.702;2023-04-03T13:30:21;12.20;97.20
76787;DHT22;65739;51.482;5.702;2023-04-03T13:32:48;12.30;97.60
76787;DHT22;65739;51.482;5.702;2023-04-03T13:35:27;12.10;97.70
76787;DHT22;65739;51.482;5.702;2023-04-03T13:37:55;12.40;97.20
76787;DHT22;65739;51.482;5.702;2023-04-03T13:40:20;12.20;96.70
76787;DHT22;65739;51.482;5.702;2023-04-03T13:42:46;12.20;96.10
76787;DHT22;65739;51.482;5.702;2023-04-03T13:45:24;12.00;97.00
76787;DHT22;65739;51.482;5.702;2023-04-03T13:47:52;12.00;96.00
76787;DHT22;65739;51.482;5.702;2023-04-03T13:50:19;12.10;97.10
76787;DHT22;65739;51.482;5.702;2023-04-03T13:52:50;11.80;96.90
76787;DHT22;65739;51.482;5.702;2023-04-03T13:55:20;12.00;97.20
76787;DHT22;65739;51.482;5.702;2023-04-03T13:58:03;12.20;97.70
76787;DHT22;65739;51.482;5.702;2023-04-03T14:03:00;12.20;98.20
76787;DHT22;65739;51.482;5.702;2023-04-03T14:05:25;12.10;96.50
76787;DHT22;65739;51.482;5.702;2023-04-03T14:07:52;12.10;97.70
76787;DHT22;65739;51.482;5.702;2023-04-03T14:10:18;12.30;96.40
76787;DHT22;65739;51.482;5.702;2023-04-03T14:12:43;12.20;96.50
76787;DHT22;65739;51.482;5.702;2023-04-03T14:15:20;12.30;97.40
76787;DHT22;65739;51.482;5.702;2023-04-03T14:17:48;12.50;98.60
76787;DHT22;65739;51.482;5.702;2023-04-03T14:20:15;12.70;97.20
76787;DHT22;65739;51.482;5.702;2023-04-03T14:22:41;12.50;97.40
76787;DHT22;65739;51.482;5.702;2023-04-03T14:27:19;12.20;97.40
76787;DHT22;65739;51.482;5.702;2023-04-03T14:29:46;12.50;97.60
76787;DHT22;65739;51.482;5.702;2023-04-03T14:32:14;12.80;97.80
76787;DHT22;65739;51.482;5.702;2023-04-03T14:34:41;12.60;96.70
76787;DHT22;65739;51.482;5.702;2023-04-03T14:37:20;12.60;96.10
76787;DHT22;65739;51.482;5.702;2023-04-03T14:39:48;12.60;97.30
76787;DHT22;65739;51.482;5.702;2023-04-03T14:42:22;12.50;97.30
76787;DHT22;65739;51.482;5.702;2023-04-03T14:44:50;12.40;97.10
76787;DHT22;65739;51.482;5.702;2023-04-03T14:47:19;12.10;98.20
76787;DHT22;65739;51.482;5.702;2023-04-03T14:49:46;12.10;97.80
76787;DHT22;65739;51.482;5.702;2023-04-03T14:52:27;12.00;97.30
76787;DHT22;65739;51.482;5.702;2023-04-03T14:54:54;12.10;98.80
76787;DHT22;65739;51.482;5.702;2023-04-03T14:57:23;12.30;97.40
76787;DHT22;65739;51.482;5.702;2023-04-03T14:59:49;12.60;97.80
76787;DHT22;65739;51.482;5.702;2023-04-03T15:02:34;12.40;97.50
76787;DHT22;65739;51.482;5.702;2023-04-03T15:05:03;12.40;98.00
76787;DHT22;65739;51.482;5.702;2023-04-03T15:07:31;12.50;96.90
76787;DHT22;65739;51.482;5.702;2023-04-03T15:10:18;12.40;97.00
76787;DHT22;65739;51.482;5.702;2023-04-03T15:12:44;12.50;97.90
76787;DHT22;65739;51.482;5.702;2023-04-03T15:15:11;12.50;97.90
76787;DHT22;65739;51.482;5.702;2023-04-03T15:17:36;12.30;97.70
76787;DHT22;65739;51.482;5.702;2023-04-03T15:20:03;12.30;97.80
76787;DHT22;65739;51.482;5.702;2023-04-03T15:22:29;12.20;97.60
76787;DHT22;65739;51.482;5.702;2023-04-03T15:24:54;12.30;98.00
76787;DHT22;65739;51.482;5.702;2023-04-03T15:27:20;12.10;97.30
76787;DHT22;65739;51.482;5.702;2023-04-03T15:29:46;12.30;97.80
76787;DHT22;65739;51.482;5.702;2023-04-03T15:32:12;12.20;97.40
76787;DHT22;65739;51.482;5.702;2023-04-03T15:34:38;12.10;97.90
76787;DHT22;65739;51.482;5.702;2023-04-03T15:37:04;12.10;97.30
76787;DHT22;65739;51.482;5.702;2023-04-03T15:39:30;12.40;97.90
76787;DHT22;65739;51.482;5.702;2023-04-03T15:42:05;12.40;97.50
76787;DHT22;65739;51.482;5.702;2023-04-03T15:44:34;12.50;97.10
76787;DHT22;65739;51.482;5.702;2023-04-03T15:47:01;12.60;96.40
76787;DHT22;65739;51.482;5.702;2023-04-03T15:49:27;12.50;96.00
76787;DHT22;65739;51.482;5.702;2023-04-03T15:51:53;12.50;96.60
76787;DHT22;65739;51.482;5.702;2023-04-03T15:54:19;12.60;95.90
76787;DHT22;65739;51.482;5.702;2023-04-03T15:56:44;12.40;96.10
76787;DHT22;65739;51.482;5.702;2023-04-03T15:59:12;12.40;97.20
76787;DHT22;65739;51.482;5.702;2023-04-03T16:01:38;12.60;96.10
76787;DHT22;65739;51.482;5.702;2023-04-03T16:04:07;12.90;96.40
76787;DHT22;65739;51.482;5.702;2023-04-03T16:06:33;13.00;95.70
76787;DHT22;65739;51.482;5.702;2023-04-03T16:08:59;13.20;95.70
76787;DHT22;65739;51.482;5.702;2023-04-03T16:11:26;12.90;95.60
76787;DHT22;65739;51.482;5.702;2023-04-03T16:13:52;13.20;96.50
76787;DHT22;65739;51.482;5.702;2023-04-03T16:16:18;13.30;96.30
76787;DHT22;65739;51.482;5.702;2023-04-03T16:18:44;13.70;96.80
76787;DHT22;65739;51.482;5.702;2023-04-03T16:21:12;13.90;96.20
76787;DHT22;65739;51.482;5.702;2023-04-03T16:23:39;13.70;96.10
76787;DHT22;65739;51.482;5.702;2023-04-03T16:26:05;13.60;96.30
76787;DHT22;65739;51.482;5.702;2023-04-03T16:28:31;13.50;96.40
76787;DHT22;65739;51.482;5.702;2023-04-03T16:30:56;13.60;96.20
76787;DHT22;65739;51.482;5.702;2023-04-03T16:33:22;13.40;95.70
76787;DHT22;65739;51.482;5.702;2023-04-03T16:35:50;13.60;96.80
76787;DHT22;65739;51.482;5.702;2023-04-03T16:38:15;13.70;96.00
76787;DHT22;65739;51.482;5.702;2023-04-03T16:40:41;13.40;96.20
76787;DHT22;65739;51.482;5.702;2023-04-03T16:43:07;13.30;96.00
76787;DHT22;65739;51.482;5.702;2023-04-03T16:45:33;13.50;96.10
76787;DHT22;65739;51.482;5.702;2023-04-03T16:47:59;13.60;96.50
76787;DHT22;65739;51.482;5.702;2023-04-03T16:50:24;13.60;96.30
76787;DHT22;65739;51.482;5.702;2023-04-03T16:52:50;12.80;95.70